Main page
METAR-TAF:

METAR-TAF

Airports :

Gran Canaria Airport

Gran Canaria, Spain

latitude: 27-56N, longitude: 015-23W, elevation: 23 m

Current weather observation

The report was made 22 minutes ago, at 03:00 UTC
Wind 13 kt from the North
Temperature 18°C
Humidity 73%
Pressure 1026 hPa
Visibility 10 km or more
Few clouds at a height of 2500 ft
Scattered clouds at a height of 4000 ft

METAR: GCLP 090300Z 01013KT 9999 FEW025 SCT040 18/13 Q1026 NOSIG

Time: 03:22 (03:22 UTC)

Forecast

The report was made 1 hour and 22 minutes ago, at 02:00 UTC
Forecast valid from 09 at 03 UTC to 10 at 03 UTC
Wind 17 kt from the North
Visibility 10 km or more
Scattered clouds at a height of 2500 ft

TAF: GCLP 090200Z 0903/1003 01017KT 9999 SCT025 TX22/0915Z TN18/0906Z

Weather observations and forecasts of more than 4000 airports (METAR and TAF reports).

The available stations are represented by yellow and red dots on the map.

Hover mouse over dot to see the name of the station.

Then click to see weather observations and forecasts.

To change the map : click on the green buttons with a black cross to zoom in, on the green button with a dash to zoom out, or on the green arrows for adjacent maps.


METAR-TAF: